Time;durP1;ratioP1;P1;durP2;ratioP2;P2;SDS_P1;SDS_P2;PMS_P1;PMS_P2;Temp;Humidity;BMP_temperature;BMP_pressure;BME280_temperature;BME280_humidity;BME280_pressure;Samples;Min_cycle;Max_cycle;Signal;HPM_P1;HPM_P2
2023/07/22 00:02:08;;;;;;;;;;;;;;;17.09;51.59;100342.45;105146;1294;71509;-84
2023/07/22 00:04:58;;;;;;;;;;;;;;;17.13;51.64;100344.20;105263;1289;59396;-84
2023/07/22 00:07:47;;;;;;;;;;;;;;;17.15;51.74;100341.63;105271;1289;61214;-84
2023/07/22 00:10:33;;;;;;;;;;;;;;;17.18;51.82;100342.52;106179;1289;72361;-85
2023/07/22 00:13:26;;;;;;;;;;;;;;;17.20;51.84;100342.79;106151;1290;68693;-85
2023/07/22 00:16:29;;;;;;;;;;;;;;;17.20;51.84;100346.80;105825;1291;71369;-84
2023/07/22 00:19:54;;;;;;;;;;;;;;;17.21;51.88;100346.91;105515;1294;61237;-85
2023/07/22 00:22:42;;;;;;;;;;;;;;;17.22;51.99;100338.88;105232;1290;61152;-85
2023/07/22 00:25:29;;;;;;;;;;;;;;;17.23;52.04;100331.33;105604;1291;74601;-85
2023/07/22 00:28:18;;;;;;;;;;;;;;;17.24;52.10;100327.77;105168;1289;67290;-85
2023/07/22 00:31:09;;;;;;;;;;;;;;;17.24;52.19;100332.36;105196;1291;71220;-85
2023/07/22 00:34:25;;;;;;;;;;;;;;;17.22;52.28;100336.43;105215;1289;61375;-85
2023/07/22 00:37:13;;;;;;;;;;;;;;;17.16;52.39;100337.09;105220;1293;59962;-85
2023/07/22 00:40:00;;;;;;;;;;;;;;;17.12;52.51;100333.42;105122;1291;73182;-84
2023/07/22 00:42:52;;;;;;;;;;;;;;;17.06;52.56;100329.02;105127;1289;67783;-85
2023/07/22 00:46:13;;;;;;;;;;;;;;;17.02;52.66;100330.27;105139;1288;71193;-85
2023/07/22 00:49:15;;;;;;;;;;;;;;;17.03;52.67;100328.67;105191;1291;61255;-85
2023/07/22 00:52:21;;;;;;;;;;;;;;;17.02;52.72;100326.60;105199;1289;62783;-85
2023/07/22 00:55:41;;;;;;;;;;;;;;;17.01;52.80;100325.41;105280;1290;74533;-85
2023/07/22 00:58:32;;;;;;;;;;;;;;;16.97;52.95;100325.46;105321;1291;67609;-85
2023/07/22 01:02:11;;;;;;;;;;;;;;;;;;;;;
2023/07/22 01:05:43;;;;;;;;;;;;;;;;;;;;;
2023/07/22 01:09:04;;;;;;;;;;;;;;;16.93;53.02;100332.45;105277;1289;59299;-86
2023/07/22 01:12:27;;;;;;;;;;;;;;;16.90;53.21;100337.08;105314;1291;73373;-86
2023/07/22 01:15:44;;;;;;;;;;;;;;;16.75;53.14;100332.92;105281;1289;70093;-85
2023/07/22 01:18:42;;;;;;;;;;;;;;;16.65;53.45;100337.21;104931;1290;223742;-85
2023/07/22 01:22:16;;;;;;;;;;;;;;;16.53;53.50;100336.33;105296;1290;59358;-85
2023/07/22 01:25:49;;;;;;;;;;;;;;;;;;;;;
2023/07/22 01:29:01;;;;;;;;;;;;;;;16.47;53.65;100341.15;105254;1289;73290;-85
2023/07/22 01:32:46;;;;;;;;;;;;;;;;;;;;;
2023/07/22 01:36:03;;;;;;;;;;;;;;;;;;;;;
2023/07/22 01:39:26;;;;;;;;;;;;;;;;;;;;;
2023/07/22 01:46:01;;;;;;;;;;;;;;;16.39;53.89;100346.89;104624;1296;73584;-85
2023/07/22 01:49:37;;;;;;;;;;;;;;;;;;;;;
2023/07/22 01:53:06;;;;;;;;;;;;;;;16.39;53.94;100344.98;104414;1300;72386;-86
2023/07/22 01:56:30;;;;;;;;;;;;;;;16.36;54.01;100342.15;104760;1299;61259;-86
2023/07/22 02:00:03;;;;;;;;;;;;;;;;;;;;;
2023/07/22 02:03:22;;;;;;;;;;;;;;;16.28;54.12;100350.70;104110;1303;77394;-85
2023/07/22 02:06:48;;;;;;;;;;;;;;;16.27;54.14;100346.56;104103;1304;68165;-85
2023/07/22 02:09:53;;;;;;;;;;;;;;;16.26;54.22;100342.59;104056;1305;74113;-85
2023/07/22 02:13:08;;;;;;;;;;;;;;;16.22;54.24;100339.27;103943;1303;60877;-85
2023/07/22 02:16:36;;;;;;;;;;;;;;;16.19;54.25;100334.88;104121;1304;61467;-85
2023/07/22 02:19:43;;;;;;;;;;;;;;;16.12;54.33;100333.98;104132;1306;75373;-85
2023/07/22 02:22:32;;;;;;;;;;;;;;;16.00;54.40;100326.90;104132;1300;68426;-85
2023/07/22 02:25:33;;;;;;;;;;;;;;;15.94;54.62;100332.20;104307;1299;71412;-85
2023/07/22 02:28:26;;;;;;;;;;;;;;;15.89;54.65;100332.06;104081;1303;231984;-85
2023/07/22 02:31:14;;;;;;;;;;;;;;;15.83;54.67;100334.03;104486;1300;61248;-85
2023/07/22 02:34:09;;;;;;;;;;;;;;;15.83;54.72;100334.89;105118;1290;73538;-85
2023/07/22 02:37:22;;;;;;;;;;;;;;;15.81;54.73;100332.04;105168;1289;71212;-85
2023/07/22 02:40:23;;;;;;;;;;;;;;;15.80;54.79;100334.34;105026;1292;72587;-85
2023/07/22 02:43:31;;;;;;;;;;;;;;;15.79;54.77;100334.92;105218;1290;61144;-85
2023/07/22 02:46:40;;;;;;;;;;;;;;;15.77;54.81;100338.28;105143;1289;62269;-85
2023/07/22 02:50:12;;;;;;;;;;;;;;;15.70;54.82;100338.94;105161;1290;73224;-85
2023/07/22 02:53:00;;;;;;;;;;;;;;;15.61;54.93;100336.55;105152;1291;67436;-85
2023/07/22 02:56:14;;;;;;;;;;;;;;;15.58;54.97;100341.38;105282;1291;71190;-85
2023/07/22 02:59:22;;;;;;;;;;;;;;;15.48;55.01;100341.76;105261;1291;61062;-85
2023/07/22 03:02:29;;;;;;;;;;;;;;;15.40;55.12;100344.32;105184;1290;62574;-87
2023/07/22 03:06:07;;;;;;;;;;;;;;;;;;;;;
2023/07/22 03:09:21;;;;;;;;;;;;;;;15.28;55.29;100344.29;105271;1290;67406;-87
2023/07/22 03:12:12;;;;;;;;;;;;;;;15.24;55.30;100340.27;105317;1288;71986;-87
2023/07/22 03:15:08;;;;;;;;;;;;;;;15.24;55.27;100344.59;105214;1288;59165;-85
2023/07/22 03:18:13;;;;;;;;;;;;;;;15.14;55.33;100343.41;105231;1291;59226;-85
2023/07/22 03:21:19;;;;;;;;;;;;;;;15.11;55.43;100346.14;105304;1290;73497;-85
2023/07/22 03:24:32;;;;;;;;;;;;;;;15.12;55.38;100345.80;105271;1289;67310;-85
2023/07/22 03:27:41;;;;;;;;;;;;;;;15.07;55.37;100346.50;105230;1289;71405;-85
2023/07/22 03:30:46;;;;;;;;;;;;;;;15.05;55.54;100354.08;105276;1293;61295;-85
2023/07/22 03:33:53;;;;;;;;;;;;;;;15.02;55.61;100352.80;105250;1290;61001;-85
2023/07/22 03:37:00;;;;;;;;;;;;;;;15.04;55.57;100353.41;105212;1289;77271;-86
2023/07/22 03:40:21;;;;;;;;;;;;;;;15.09;55.57;100355.46;105260;1291;67967;-86
2023/07/22 03:43:43;;;;;;;;;;;;;;;;;;;;;
2023/07/22 03:47:08;;;;;;;;;;;;;;;;;;;;;
2023/07/22 03:53:54;;;;;;;;;;;;;;;15.15;55.91;100357.63;104990;1291;75410;-85
2023/07/22 03:56:56;;;;;;;;;;;;;;;15.18;55.96;100361.69;105085;1291;67547;-85
2023/07/22 04:00:37;;;;;;;;;;;;;;;15.24;56.02;100358.68;105041;1294;74036;-86
2023/07/22 04:03:57;;;;;;;;;;;;;;;15.22;56.10;100357.70;105011;1291;61034;-85
2023/07/22 04:06:50;;;;;;;;;;;;;;;15.23;56.22;100358.70;105080;1291;61146;-85
2023/07/22 04:09:42;;;;;;;;;;;;;;;15.30;56.27;100359.14;105402;1291;73911;-86
2023/07/22 04:13:03;;;;;;;;;;;;;;;15.35;56.28;100357.91;105109;1291;69192;-85
2023/07/22 04:16:37;;;;;;;;;;;;;;;;;;;;;
2023/07/22 04:19:44;;;;;;;;;;;;;;;15.58;56.54;100356.32;105850;1290;58543;-85
2023/07/22 04:22:49;;;;;;;;;;;;;;;15.64;56.49;100349.77;105205;1290;59118;-87
2023/07/22 04:25:58;;;;;;;;;;;;;;;15.65;56.63;100350.97;105129;1291;73258;-88
2023/07/22 04:29:20;;;;;;;;;;;;;;;15.68;56.65;100355.17;105254;1293;68035;-87
2023/07/22 04:32:12;;;;;;;;;;;;;;;15.74;56.79;100360.29;105251;1289;72336;-85
2023/07/22 04:35:18;;;;;;;;;;;;;;;15.79;56.76;100360.80;105038;1291;61227;-85
2023/07/22 04:38:17;;;;;;;;;;;;;;;15.85;56.82;100357.23;105729;1289;61157;-85
2023/07/22 04:41:42;;;;;;;;;;;;;;;15.91;56.92;100356.64;105392;1289;73772;-85
2023/07/22 04:44:50;;;;;;;;;;;;;;;15.95;56.99;100354.73;105176;1288;67282;-85
2023/07/22 04:48:16;;;;;;;;;;;;;;;16.03;57.06;100361.73;104869;1293;72382;-85
2023/07/22 04:55:11;;;;;;;;;;;;;;;16.15;57.29;100363.92;104692;1292;61375;-85
2023/07/22 04:58:38;;;;;;;;;;;;;;;16.20;57.26;100359.22;104948;1294;73144;-86
2023/07/22 05:02:03;;;;;;;;;;;;;;;16.27;57.35;100351.92;104904;1291;66534;-86
2023/07/22 05:05:29;;;;;;;;;;;;;;;16.37;57.52;100361.79;104918;1293;74497;-86
2023/07/22 05:08:55;;;;;;;;;;;;;;;16.47;57.60;100364.80;104864;1293;61128;-86
2023/07/22 05:12:21;;;;;;;;;;;;;;;16.60;57.59;100369.80;104809;1294;61346;-86
2023/07/22 05:15:47;;;;;;;;;;;;;;;16.74;57.74;100373.54;104899;1294;73262;-86
2023/07/22 05:19:13;;;;;;;;;;;;;;;16.98;57.94;100376.61;105202;1289;70252;-86
2023/07/22 05:22:39;;;;;;;;;;;;;;;17.42;57.84;100378.14;105220;1290;71095;-86
2023/07/22 05:26:11;;;;;;;;;;;;;;;18.12;57.73;100383.23;105258;1288;61154;-86
2023/07/22 05:29:37;;;;;;;;;;;;;;;18.94;57.26;100382.72;105303;1290;59970;-86
2023/07/22 05:32:49;;;;;;;;;;;;;;;19.65;57.06;100378.73;105172;1289;73841;-85
2023/07/22 05:36:16;;;;;;;;;;;;;;;20.30;56.64;100386.98;105292;1290;67387;-86
2023/07/22 05:39:42;;;;;;;;;;;;;;;20.90;56.47;100383.60;105236;1291;71392;-85
2023/07/22 05:43:04;;;;;;;;;;;;;;;21.57;56.25;100382.99;105278;1289;61686;-87
2023/07/22 05:46:10;;;;;;;;;;;;;;;22.28;55.78;100389.98;105325;1290;59287;-86
2023/07/22 05:49:00;;;;;;;;;;;;;;;22.51;55.29;100389.34;105299;1291;76777;-86
2023/07/22 05:51:50;;;;;;;;;;;;;;;22.78;55.25;100388.09;105174;1291;67173;-85
2023/07/22 05:54:38;;;;;;;;;;;;;;;23.10;55.21;100395.31;105130;1291;72603;-85
2023/07/22 05:57:25;;;;;;;;;;;;;;;23.41;54.97;100392.16;106167;1289;59379;-85
2023/07/22 06:00:31;;;;;;;;;;;;;;;23.68;54.71;100394.43;106004;1290;164986;-86
2023/07/22 06:03:21;;;;;;;;;;;;;;;23.95;54.62;100398.73;106231;1289;74525;-85
2023/07/22 06:06:08;;;;;;;;;;;;;;;24.15;54.26;100399.52;106147;1290;67292;-85
2023/07/22 06:08:55;;;;;;;;;;;;;;;24.09;54.09;100400.84;105669;1289;71384;-85
2023/07/22 06:11:47;;;;;;;;;;;;;;;24.02;54.02;100401.70;105148;1291;60943;-85
2023/07/22 06:14:34;;;;;;;;;;;;;;;24.32;54.29;100415.09;105336;1290;59523;-85
2023/07/22 06:17:20;;;;;;;;;;;;;;;24.63;53.67;100413.55;105237;1290;73930;-85
2023/07/22 06:20:08;;;;;;;;;;;;;;;24.90;53.59;100414.50;105269;1289;68293;-85
2023/07/22 06:22:54;;;;;;;;;;;;;;;25.21;53.30;100414.33;105249;1291;72032;-85
2023/07/22 06:25:42;;;;;;;;;;;;;;;25.42;52.89;100420.56;105252;1290;60529;-85
2023/07/22 06:28:28;;;;;;;;;;;;;;;25.49;52.84;100419.28;105266;1290;61523;-84
2023/07/22 06:31:16;;;;;;;;;;;;;;;25.71;52.66;100416.95;105290;1290;74398;-85
2023/07/22 06:34:03;;;;;;;;;;;;;;;25.92;52.57;100423.48;105338;1290;67216;-85
2023/07/22 06:36:49;;;;;;;;;;;;;;;26.30;52.32;100429.82;105406;1288;71116;-85
2023/07/22 06:39:36;;;;;;;;;;;;;;;26.42;51.65;100432.31;105319;1290;61461;-85
2023/07/22 06:42:22;;;;;;;;;;;;;;;26.20;51.85;100430.44;105240;1289;61075;-84
2023/07/22 06:45:09;;;;;;;;;;;;;;;25.88;51.77;100430.50;105274;1290;75919;-85
2023/07/22 06:47:56;;;;;;;;;;;;;;;25.47;51.87;100429.30;105255;1290;68233;-85
2023/07/22 06:50:48;;;;;;;;;;;;;;;25.07;51.67;100426.33;105288;1290;71480;-84
2023/07/22 06:53:35;;;;;;;;;;;;;;;24.70;51.79;100428.36;105314;1289;61202;-85
2023/07/22 06:56:21;;;;;;;;;;;;;;;24.50;51.77;100434.03;105365;1290;59691;-84
2023/07/22 06:59:07;;;;;;;;;;;;;;;24.34;51.52;100434.57;105250;1290;75095;-85
2023/07/22 07:01:53;;;;;;;;;;;;;;;24.01;51.49;100442.99;105237;1289;67658;-84
2023/07/22 07:04:39;;;;;;;;;;;;;;;23.70;51.41;100443.39;105191;1289;71466;-84
2023/07/22 07:07:25;;;;;;;;;;;;;;;23.40;51.47;100452.11;104922;1291;59356;-84
2023/07/22 07:10:11;;;;;;;;;;;;;;;23.12;51.27;100455.85;105232;1290;60724;-84
2023/07/22 07:12:58;;;;;;;;;;;;;;;22.84;51.42;100460.52;105208;1290;72558;-84
2023/07/22 07:15:50;;;;;;;;;;;;;;;22.78;51.39;100466.67;105237;1289;67349;-84
2023/07/22 07:18:37;;;;;;;;;;;;;;;22.56;51.25;100469.96;105223;1291;71717;-84
2023/07/22 07:21:23;;;;;;;;;;;;;;;22.29;51.52;100473.73;105326;1290;61360;-84
2023/07/22 07:24:09;;;;;;;;;;;;;;;22.25;51.52;100474.20;105238;1289;61285;-84
2023/07/22 07:26:55;;;;;;;;;;;;;;;23.23;51.67;100476.48;105098;1291;75946;-85
2023/07/22 07:29:41;;;;;;;;;;;;;;;24.12;50.64;100476.38;105246;1291;67374;-84
2023/07/22 07:32:27;;;;;;;;;;;;;;;23.83;50.57;100475.17;105200;1290;72000;-84
2023/07/22 07:35:14;;;;;;;;;;;;;;;23.63;50.93;100476.64;105190;1290;61152;-84
2023/07/22 07:38:00;;;;;;;;;;;;;;;23.56;50.83;100484.72;105147;1289;61242;-84
2023/07/22 07:40:46;;;;;;;;;;;;;;;23.76;51.32;100482.14;105118;1290;73218;-84
2023/07/22 07:43:33;;;;;;;;;;;;;;;24.37;50.54;100482.41;105198;1291;67390;-84
2023/07/22 07:46:23;;;;;;;;;;;;;;;24.25;50.25;100482.96;105176;1291;71352;-84
2023/07/22 07:49:09;;;;;;;;;;;;;;;24.00;50.34;100488.48;105237;1290;59546;-84
2023/07/22 07:51:55;;;;;;;;;;;;;;;23.58;50.44;100496.02;105195;1290;61121;-85
2023/07/22 07:54:41;;;;;;;;;;;;;;;23.50;50.33;100500.46;105125;1290;73288;-85
2023/07/22 07:57:27;;;;;;;;;;;;;;;23.21;50.37;100511.99;105155;1294;70106;-85
2023/07/22 08:00:14;;;;;;;;;;;;;;;23.08;50.41;100510.99;105134;1290;72277;-84
2023/07/22 08:03:00;;;;;;;;;;;;;;;24.01;50.55;100514.63;105237;1290;61364;-85
2023/07/22 08:05:54;;;;;;;;;;;;;;;25.26;49.46;100517.10;105208;1290;61658;-85
2023/07/22 08:08:40;;;;;;;;;;;;;;;25.47;49.74;100522.14;105288;1290;74613;-85
2023/07/22 08:11:26;;;;;;;;;;;;;;;25.38;49.38;100518.27;105291;1293;67368;-85
2023/07/22 08:14:13;;;;;;;;;;;;;;;24.80;49.48;100522.84;105155;1292;71205;-84
2023/07/22 08:16:59;;;;;;;;;;;;;;;25.03;50.13;100531.08;105246;1290;60992;-85
2023/07/22 08:19:46;;;;;;;;;;;;;;;26.21;48.80;100532.73;105080;1296;61219;-85
2023/07/22 08:22:32;;;;;;;;;;;;;;;25.59;49.00;100534.40;105213;1289;73411;-85
2023/07/22 08:25:18;;;;;;;;;;;;;;;26.02;49.17;100539.08;105189;1292;67412;-85
2023/07/22 08:28:04;;;;;;;;;;;;;;;27.10;48.66;100550.62;105238;1289;72373;-85
2023/07/22 08:30:55;;;;;;;;;;;;;;;27.98;48.49;100553.81;105188;1290;61146;-86
2023/07/22 08:34:05;;;;;;;;;;;;;;;27.54;48.22;100569.23;105323;1290;59751;-88
2023/07/22 08:37:32;;;;;;;;;;;;;;;26.89;48.13;100570.69;105265;1290;73184;-88
2023/07/22 08:40:58;;;;;;;;;;;;;;;27.21;48.69;100566.94;105297;1289;71338;-89
2023/07/22 08:44:24;;;;;;;;;;;;;;;27.13;47.60;100571.90;105305;1289;71317;-88
2023/07/22 08:47:51;;;;;;;;;;;;;;;26.81;48.28;100567.77;105310;1289;61214;-88
2023/07/22 08:51:23;;;;;;;;;;;;;;;29.04;47.50;100569.00;105198;1291;59737;-88
2023/07/22 08:54:49;;;;;;;;;;;;;;;30.73;47.58;100572.30;104902;1297;75248;-89
2023/07/22 08:58:16;;;;;;;;;;;;;;;32.92;46.65;100574.92;104748;1302;69695;-89
2023/07/22 09:01:41;;;;;;;;;;;;;;;33.98;46.01;100577.24;105320;1296;72257;-88
2023/07/22 09:05:09;;;;;;;;;;;;;;;32.10;46.10;100578.79;104863;1296;61439;-88
2023/07/22 09:08:33;;;;;;;;;;;;;;;30.33;46.70;100576.64;104748;1299;61138;-88
2023/07/22 09:11:59;;;;;;;;;;;;;;;29.03;46.76;100579.55;104843;1299;74541;-88
2023/07/22 09:15:26;;;;;;;;;;;;;;;28.15;46.48;100580.63;105160;1299;66442;-87
2023/07/22 09:18:52;;;;;;;;;;;;;;;27.30;45.86;100577.57;104511;1299;72923;-88
2023/07/22 09:22:18;;;;;;;;;;;;;;;26.44;45.61;100581.17;104584;1300;60907;-87
2023/07/22 09:25:44;;;;;;;;;;;;;;;25.73;45.47;100572.45;104561;1300;61535;-87
2023/07/22 09:29:11;;;;;;;;;;;;;;;25.18;45.20;100575.84;104964;1299;74354;-89
2023/07/22 09:32:37;;;;;;;;;;;;;;;24.72;45.03;100572.45;105203;1291;68226;-89
2023/07/22 09:36:03;;;;;;;;;;;;;;;24.40;44.82;100570.98;105392;1291;72185;-89
2023/07/22 09:39:30;;;;;;;;;;;;;;;24.21;44.80;100573.61;104792;1295;59578;-89
2023/07/22 09:42:56;;;;;;;;;;;;;;;24.00;44.48;100572.55;104671;1297;60073;-88
2023/07/22 09:46:28;;;;;;;;;;;;;;;23.78;44.38;100569.95;104697;1297;74358;-88
2023/07/22 09:49:54;;;;;;;;;;;;;;;23.75;44.62;100571.00;104809;1298;67486;-88
2023/07/22 09:53:24;;;;;;;;;;;;;;;23.72;44.42;100569.27;104762;1296;71237;-88
2023/07/22 09:56:50;;;;;;;;;;;;;;;23.66;44.31;100568.15;104797;1296;58832;-88
2023/07/22 10:00:19;;;;;;;;;;;;;;;23.62;44.29;100564.70;104730;1296;61612;-88
2023/07/22 10:03:42;;;;;;;;;;;;;;;23.65;44.14;100567.52;104786;1300;73334;-86
2023/07/22 10:06:30;;;;;;;;;;;;;;;23.57;43.94;100568.75;104618;1297;70103;-86
2023/07/22 10:09:17;;;;;;;;;;;;;;;23.48;44.02;100577.48;104576;1299;70391;-86
2023/07/22 10:12:04;;;;;;;;;;;;;;;23.35;43.86;100573.66;104594;1297;61264;-86
2023/07/22 10:14:52;;;;;;;;;;;;;;;23.14;43.98;100572.68;104538;1295;61186;-86
2023/07/22 10:17:41;;;;;;;;;;;;;;;23.03;43.91;100568.69;105168;1291;73302;-86
2023/07/22 10:20:28;;;;;;;;;;;;;;;22.97;43.87;100569.77;105109;1291;67401;-86
2023/07/22 10:23:16;;;;;;;;;;;;;;;22.90;43.70;100574.11;105107;1291;72199;-86
2023/07/22 10:26:04;;;;;;;;;;;;;;;22.93;43.86;100569.71;105177;1290;59964;-86
2023/07/22 10:28:51;;;;;;;;;;;;;;;22.89;43.70;100570.71;105230;1291;62176;-86
2023/07/22 10:31:38;;;;;;;;;;;;;;;22.83;43.81;100574.66;105145;1291;73218;-86
2023/07/22 10:34:26;;;;;;;;;;;;;;;22.79;43.66;100568.23;105497;1291;67450;-86
2023/07/22 10:37:33;;;;;;;;;;;;;;;22.73;43.74;100569.27;105180;1290;70731;-86
2023/07/22 10:40:29;;;;;;;;;;;;;;;22.71;43.53;100568.39;105255;1291;61260;-85
2023/07/22 10:43:19;;;;;;;;;;;;;;;22.64;43.71;100565.87;105267;1291;59194;-86
2023/07/22 10:46:07;;;;;;;;;;;;;;;22.66;43.72;100566.42;105249;1291;73452;-85
2023/07/22 10:49:06;;;;;;;;;;;;;;;22.71;43.72;100564.36;105374;1290;67209;-86
2023/07/22 10:51:52;;;;;;;;;;;;;;;22.82;43.63;100564.33;105418;1291;71264;-86
2023/07/22 10:54:38;;;;;;;;;;;;;;;22.93;43.71;100567.41;105333;1289;61317;-86
2023/07/22 10:57:27;;;;;;;;;;;;;;;23.03;43.51;100578.54;105326;1291;59701;-85
2023/07/22 11:00:20;;;;;;;;;;;;;;;23.03;43.41;100572.52;105411;1289;73258;-86
2023/07/22 11:03:13;;;;;;;;;;;;;;;23.06;43.41;100575.63;105380;1294;67880;-86
2023/07/22 11:05:59;;;;;;;;;;;;;;;23.07;43.32;100575.44;105207;1290;72664;-87
2023/07/22 11:08:45;;;;;;;;;;;;;;;23.06;43.29;100578.12;105308;1291;59490;-84
2023/07/22 11:11:49;;;;;;;;;;;;;;;23.09;43.46;100580.19;105079;1291;61388;-89
2023/07/22 11:14:38;;;;;;;;;;;;;;;23.11;43.37;100572.15;105082;1292;76018;-88
2023/07/22 11:17:29;;;;;;;;;;;;;;;23.13;43.32;100572.38;105299;1289;68415;-85
2023/07/22 11:20:32;;;;;;;;;;;;;;;23.10;43.23;100571.83;105220;1291;71307;-88
2023/07/22 11:23:18;;;;;;;;;;;;;;;23.10;43.24;100572.06;105332;1291;61224;-87
2023/07/22 11:26:05;;;;;;;;;;;;;;;23.11;43.27;100575.84;105220;1291;61167;-84
2023/07/22 11:28:53;;;;;;;;;;;;;;;23.12;43.37;100578.06;105172;1291;73426;-85
2023/07/22 11:31:44;;;;;;;;;;;;;;;23.22;43.42;100574.06;105252;1291;67208;-85
2023/07/22 11:34:30;;;;;;;;;;;;;;;23.29;43.07;100567.54;105216;1292;72450;-86
2023/07/22 11:37:18;;;;;;;;;;;;;;;23.36;43.19;100569.02;105171;1291;61157;-86
2023/07/22 11:40:04;;;;;;;;;;;;;;;23.43;43.01;100558.30;105252;1290;61286;-86
2023/07/22 11:42:51;;;;;;;;;;;;;;;23.43;42.96;100565.86;105291;1290;74949;-86
2023/07/22 11:45:41;;;;;;;;;;;;;;;23.36;42.89;100569.20;105361;1290;68493;-85
2023/07/22 11:48:27;;;;;;;;;;;;;;;23.23;42.72;100568.69;105264;1291;75878;-85
2023/07/22 11:51:20;;;;;;;;;;;;;;;23.18;42.91;100567.63;105225;1290;61101;-85
2023/07/22 11:54:07;;;;;;;;;;;;;;;23.24;42.79;100567.21;105293;1291;61153;-85
2023/07/22 11:57:09;;;;;;;;;;;;;;;23.33;42.70;100571.70;105368;1291;73119;-85
2023/07/22 11:59:56;;;;;;;;;;;;;;;23.33;42.54;100573.30;105304;1294;67323;-85
2023/07/22 12:02:42;;;;;;;;;;;;;;;23.30;42.40;100571.21;105250;1291;71396;-85
2023/07/22 12:05:28;;;;;;;;;;;;;;;23.35;42.35;100572.23;105211;1294;61086;-85
2023/07/22 12:08:15;;;;;;;;;;;;;;;23.45;42.25;100573.28;105246;1290;61190;-85
2023/07/22 12:11:01;;;;;;;;;;;;;;;23.49;42.21;100573.39;105280;1290;73262;-85
2023/07/22 12:13:50;;;;;;;;;;;;;;;23.46;42.15;100570.03;105285;1291;67234;-85
2023/07/22 12:16:37;;;;;;;;;;;;;;;23.40;41.85;100570.30;105349;1291;71217;-86
2023/07/22 12:19:23;;;;;;;;;;;;;;;23.31;42.02;100576.39;105118;1295;61229;-86
2023/07/22 12:22:10;;;;;;;;;;;;;;;23.26;41.96;100580.25;105197;1291;59495;-85
2023/07/22 12:24:56;;;;;;;;;;;;;;;23.25;41.96;100580.87;105253;1290;73196;-85
2023/07/22 12:27:43;;;;;;;;;;;;;;;23.26;41.87;100574.64;105279;1291;67222;-86
2023/07/22 12:30:29;;;;;;;;;;;;;;;23.26;41.94;100581.14;105333;1290;71184;-86
2023/07/22 12:33:15;;;;;;;;;;;;;;;23.34;42.06;100577.11;105214;1289;59717;-86
2023/07/22 12:36:01;;;;;;;;;;;;;;;23.42;41.81;100570.81;105341;1290;61170;-86
2023/07/22 12:38:47;;;;;;;;;;;;;;;23.49;41.69;100574.98;105194;1291;74714;-86
2023/07/22 12:41:33;;;;;;;;;;;;;;;23.51;41.63;100574.96;105341;1292;69123;-86
2023/07/22 12:44:19;;;;;;;;;;;;;;;23.50;41.58;100580.48;105305;1291;75221;-87
2023/07/22 12:47:05;;;;;;;;;;;;;;;23.47;41.62;100577.00;105332;1291;61156;-86
2023/07/22 12:49:51;;;;;;;;;;;;;;;23.31;41.33;100578.69;105251;1289;59257;-86
2023/07/22 12:52:37;;;;;;;;;;;;;;;23.17;41.44;100579.52;105305;1289;74171;-86
2023/07/22 12:55:24;;;;;;;;;;;;;;;23.11;41.29;100584.11;105210;1291;66792;-86
2023/07/22 12:58:10;;;;;;;;;;;;;;;23.02;41.31;100583.33;105234;1289;71732;-86
2023/07/22 13:00:56;;;;;;;;;;;;;;;23.00;41.28;100578.58;105192;1292;61266;-86
2023/07/22 13:03:42;;;;;;;;;;;;;;;22.96;41.20;100589.73;105263;1290;61275;-86
2023/07/22 13:06:28;;;;;;;;;;;;;;;22.92;41.08;100582.95;105243;1290;73334;-86
2023/07/22 13:09:14;;;;;;;;;;;;;;;22.96;41.16;100584.32;105204;1291;68526;-86
2023/07/22 13:12:00;;;;;;;;;;;;;;;23.05;41.12;100581.04;105217;1289;71326;-86
2023/07/22 13:14:46;;;;;;;;;;;;;;;23.07;40.72;100582.64;105187;1289;59558;-86
2023/07/22 13:17:32;;;;;;;;;;;;;;;23.02;40.89;100575.23;105197;1289;61180;-86
2023/07/22 13:20:18;;;;;;;;;;;;;;;22.95;40.69;100580.27;105128;1289;73251;-86
2023/07/22 13:23:04;;;;;;;;;;;;;;;22.88;40.84;100582.52;105157;1291;67439;-86
2023/07/22 13:25:51;;;;;;;;;;;;;;;22.84;40.64;100579.64;105213;1290;71558;-86
2023/07/22 13:28:37;;;;;;;;;;;;;;;22.84;40.79;100582.14;105210;1291;62251;-86
2023/07/22 13:31:23;;;;;;;;;;;;;;;22.83;40.65;100582.21;105174;1291;61072;-86
2023/07/22 13:34:10;;;;;;;;;;;;;;;22.83;40.65;100577.29;105140;1289;73204;-86
2023/07/22 13:36:56;;;;;;;;;;;;;;;22.90;40.64;100577.66;105157;1291;67394;-85
2023/07/22 13:39:42;;;;;;;;;;;;;;;23.00;40.62;100579.09;105192;1290;71183;-85
2023/07/22 13:42:28;;;;;;;;;;;;;;;23.06;40.50;100578.64;105157;1291;60950;-86
2023/07/22 13:45:15;;;;;;;;;;;;;;;23.09;40.37;100577.19;105146;1294;61226;-85
2023/07/22 13:48:01;;;;;;;;;;;;;;;23.12;40.40;100575.61;105205;1291;74364;-86
2023/07/22 13:50:47;;;;;;;;;;;;;;;23.14;40.38;100578.84;105159;1291;67204;-86
2023/07/22 13:53:33;;;;;;;;;;;;;;;23.15;40.44;100584.73;105173;1291;71270;-86
2023/07/22 13:56:19;;;;;;;;;;;;;;;23.17;40.19;100583.56;105157;1290;61145;-86
2023/07/22 13:59:05;;;;;;;;;;;;;;;23.16;40.34;100585.76;105194;1291;61444;-86
2023/07/22 14:01:52;;;;;;;;;;;;;;;23.17;40.16;100580.57;105172;1290;73322;-86
2023/07/22 14:04:38;;;;;;;;;;;;;;;23.18;40.15;100585.98;105211;1290;68045;-86
2023/07/22 14:07:24;;;;;;;;;;;;;;;23.15;39.83;100585.28;105204;1288;71274;-86
2023/07/22 14:10:10;;;;;;;;;;;;;;;23.11;39.88;100586.41;105143;1291;59365;-86
2023/07/22 14:12:56;;;;;;;;;;;;;;;23.07;39.86;100587.40;105239;1292;59397;-86
2023/07/22 14:15:43;;;;;;;;;;;;;;;23.03;39.87;100580.41;105101;1289;75131;-85
2023/07/22 14:18:29;;;;;;;;;;;;;;;23.01;39.80;100572.48;105186;1291;67404;-86
2023/07/22 14:21:15;;;;;;;;;;;;;;;23.03;39.82;100575.86;105224;1289;70905;-86
2023/07/22 14:24:01;;;;;;;;;;;;;;;23.04;39.72;100573.54;105200;1292;59424;-85
2023/07/22 14:26:48;;;;;;;;;;;;;;;23.00;39.73;100568.73;105271;1290;61343;-86
2023/07/22 14:29:34;;;;;;;;;;;;;;;22.94;39.66;100565.05;104930;1291;73243;-85
2023/07/22 14:32:20;;;;;;;;;;;;;;;22.93;39.64;100562.66;105176;1294;70049;-84
2023/07/22 14:35:06;;;;;;;;;;;;;;;22.98;39.72;100565.87;105188;1291;74071;-84
2023/07/22 14:37:52;;;;;;;;;;;;;;;23.01;39.60;100570.18;105153;1291;61211;-84
2023/07/22 14:40:38;;;;;;;;;;;;;;;23.02;39.54;100565.55;105160;1291;61144;-85
2023/07/22 14:43:44;;;;;;;;;;;;;;;23.07;39.63;100566.48;105273;1294;73581;-88
2023/07/22 14:47:11;;;;;;;;;;;;;;;23.11;39.29;100569.54;105269;1290;67253;-87
2023/07/22 14:50:37;;;;;;;;;;;;;;;23.14;39.50;100563.16;105261;1288;74077;-87
2023/07/22 14:54:03;;;;;;;;;;;;;;;23.17;39.18;100568.81;105214;1292;61207;-86
2023/07/22 14:57:30;;;;;;;;;;;;;;;23.14;38.93;100555.44;105293;1292;59923;-86
2023/07/22 15:00:55;;;;;;;;;;;;;;;23.15;39.09;100553.95;105785;1294;75193;-87
2023/07/22 15:04:21;;;;;;;;;;;;;;;23.16;39.13;100560.06;105293;1291;67268;-87
2023/07/22 15:07:47;;;;;;;;;;;;;;;23.16;38.94;100566.93;105330;1292;72096;-87
2023/07/22 15:11:13;;;;;;;;;;;;;;;23.15;39.01;100564.14;106002;1290;59377;-87
2023/07/22 15:14:39;;;;;;;;;;;;;;;23.24;38.84;100564.21;106052;1292;60366;-87
2023/07/22 15:18:05;;;;;;;;;;;;;;;23.29;38.84;100563.55;106147;1291;74787;-87
2023/07/22 15:21:31;;;;;;;;;;;;;;;23.36;38.70;100566.23;105312;1291;67331;-86
2023/07/22 15:24:57;;;;;;;;;;;;;;;23.33;38.61;100570.11;105338;1290;71270;-87
2023/07/22 15:28:23;;;;;;;;;;;;;;;23.28;38.64;100571.17;106152;1289;59292;-87
2023/07/22 15:31:49;;;;;;;;;;;;;;;23.24;38.53;100568.45;105628;1290;60004;-87
2023/07/22 15:35:16;;;;;;;;;;;;;;;23.24;38.52;100573.04;105255;1295;74758;-87
2023/07/22 15:38:42;;;;;;;;;;;;;;;23.18;38.42;100570.98;105264;1294;70599;-87
2023/07/22 15:42:08;;;;;;;;;;;;;;;23.04;38.31;100571.58;105241;1290;71352;-86
2023/07/22 15:45:34;;;;;;;;;;;;;;;22.96;38.42;100570.38;105298;1289;61233;-86
2023/07/22 15:49:01;;;;;;;;;;;;;;;22.87;38.34;100567.85;105253;1289;61235;-87